createdAt,value
2023-02-19T00:01:22.545Z,98874.59
2023-02-19T00:03:52.396Z,98868.78
2023-02-19T00:06:20.638Z,98865.63
2023-02-19T00:08:47.468Z,98855.50
2023-02-19T00:11:19.887Z,98862.00
2023-02-19T00:13:49.084Z,98863.13
2023-02-19T00:16:18.431Z,98860.59
2023-02-19T00:18:45.972Z,98855.50
2023-02-19T00:21:13.252Z,98854.09
2023-02-19T00:23:39.973Z,98853.03
2023-02-19T00:26:18.188Z,98848.97
2023-02-19T00:28:45.946Z,98854.09
2023-02-19T00:31:24.963Z,98852.53
2023-02-19T00:33:55.397Z,98852.59
2023-02-19T00:36:22.684Z,98853.16
2023-02-19T00:38:49.947Z,98853.22
2023-02-19T00:41:21.523Z,98863.19
2023-02-19T00:43:56.623Z,98859.38
2023-02-19T00:46:32.661Z,98863.19
2023-02-19T00:49:00.274Z,98869.66
2023-02-19T00:51:30.446Z,98865.09
2023-02-19T00:53:57.696Z,98863.19
2023-02-19T00:56:24.260Z,98868.97
2023-02-19T00:58:51.483Z,98864.31
2023-02-19T01:01:19.227Z,98859.56
2023-02-19T01:03:46.874Z,98853.09
2023-02-19T01:06:15.424Z,98845.47
2023-02-19T01:08:42.297Z,98835.97
2023-02-19T01:13:42.035Z,98836.41
2023-02-19T01:16:08.784Z,98822.50
2023-02-19T01:18:35.796Z,98825.66
2023-02-19T01:21:12.205Z,98827.59
2023-02-19T01:23:39.528Z,98825.97
2023-02-19T01:26:08.138Z,98828.94
2023-02-19T01:28:35.534Z,98821.09
2023-02-19T01:31:07.756Z,98820.38
2023-02-19T01:33:35.277Z,98817.41
2023-02-19T01:36:05.617Z,98821.53
2023-02-19T01:38:32.176Z,98812.91
2023-02-19T01:41:00.859Z,98809.94
2023-02-19T01:43:28.021Z,98809.22
2023-02-19T01:45:55.324Z,98818.91
2023-02-19T01:48:33.168Z,98810.47
2023-02-19T01:51:07.214Z,98806.88
2023-02-19T01:53:39.379Z,98814.59
2023-02-19T01:56:08.352Z,98806.31
2023-02-19T01:58:36.699Z,98797.78
2023-02-19T02:03:41.977Z,98803.16
2023-02-19T02:06:15.931Z,98800.19
2023-02-19T02:09:01.146Z,98809.41
2023-02-19T02:11:28.248Z,98798.84
2023-02-19T02:13:55.332Z,98804.75
2023-02-19T02:16:46.820Z,98802.63
2023-02-19T02:19:48.575Z,98806.00
2023-02-19T02:22:45.753Z,98797.44
2023-02-19T02:25:50.710Z,98795.41
2023-02-19T02:28:34.158Z,98792.81
2023-02-19T02:31:14.965Z,98783.38
2023-02-19T02:33:56.236Z,98781.25
2023-02-19T02:36:31.341Z,98774.31
2023-02-19T02:38:58.613Z,98777.03
2023-02-19T02:41:25.714Z,98774.47
2023-02-19T02:43:52.215Z,98773.59
2023-02-19T02:46:28.567Z,98773.06
2023-02-19T02:48:58.153Z,98775.69
2023-02-19T02:51:41.449Z,98772.00
2023-02-19T02:54:39.419Z,98764.81
2023-02-19T02:57:09.407Z,98772.78
2023-02-19T02:59:39.813Z,98772.53
2023-02-19T03:02:20.058Z,98771.31
2023-02-19T03:05:26.644Z,98765.41
2023-02-19T03:07:54.473Z,98760.75
2023-02-19T03:10:26.917Z,98766.56
2023-02-19T03:13:16.159Z,98765.78
2023-02-19T03:16:20.498Z,98766.13
2023-02-19T03:19:10.667Z,98765.50
2023-02-19T03:21:40.278Z,98760.31
2023-02-19T03:24:29.805Z,98760.41
2023-02-19T03:26:59.436Z,98759.53
2023-02-19T03:29:29.714Z,98763.63
2023-02-19T03:32:02.057Z,98758.00
2023-02-19T03:34:51.794Z,98767.44
2023-02-19T03:37:30.141Z,98763.09
2023-02-19T03:39:57.556Z,98759.78
2023-02-19T03:43:02.075Z,98759.00
2023-02-19T03:45:48.332Z,98755.47
2023-02-19T03:48:31.143Z,98769.09
2023-02-19T03:51:09.277Z,98767.97
2023-02-19T03:54:13.227Z,98769.25
2023-02-19T03:57:00.024Z,98772.34
2023-02-19T03:59:34.891Z,98774.25
2023-02-19T04:02:07.810Z,98773.91
2023-02-19T04:04:38.151Z,98782.88
2023-02-19T04:07:05.596Z,98774.78
2023-02-19T04:09:38.230Z,98780.53
2023-02-19T04:12:06.894Z,98778.22
2023-02-19T04:14:39.864Z,98791.97
2023-02-19T04:17:11.759Z,98793.09
2023-02-19T04:19:42.606Z,98795.66
2023-02-19T04:22:12.189Z,98800.44
2023-02-19T04:24:43.210Z,98799.00
2023-02-19T04:27:10.199Z,98797.13
2023-02-19T04:29:39.079Z,98794.50
2023-02-19T04:32:06.375Z,98800.19
2023-02-19T04:34:33.396Z,98804.50
2023-02-19T04:36:59.896Z,98809.03
2023-02-19T04:39:26.446Z,98818.31
2023-02-19T04:41:52.962Z,98805.16
2023-02-19T04:44:19.646Z,98825.00
2023-02-19T04:46:46.230Z,98817.09
2023-02-19T04:49:12.787Z,98826.50
2023-02-19T04:51:40.174Z,98834.44
2023-02-19T04:54:06.766Z,98829.47
2023-02-19T04:56:33.478Z,98838.66
2023-02-19T04:59:00.255Z,98845.13
2023-02-19T05:01:26.879Z,98840.44
2023-02-19T05:03:53.442Z,98838.94
2023-02-19T05:06:20.109Z,98840.38
2023-02-19T05:08:46.681Z,98834.59
2023-02-19T05:11:13.479Z,98844.25
2023-02-19T05:13:40.639Z,98836.78
2023-02-19T05:16:16.331Z,98846.06
2023-02-19T05:18:44.646Z,98847.47
2023-02-19T05:21:12.506Z,98845.69
2023-02-19T05:23:39.392Z,98844.66
2023-02-19T05:26:07.702Z,98838.34
2023-02-19T05:28:34.505Z,98848.19
2023-02-19T05:31:06.721Z,98839.91
2023-02-19T05:33:33.529Z,98840.25
2023-02-19T05:36:00.185Z,98843.09
2023-02-19T05:38:26.702Z,98848.56
2023-02-19T05:40:53.246Z,98842.09
2023-02-19T05:43:19.762Z,98848.47
2023-02-19T05:48:24.018Z,98856.41
2023-02-19T05:50:50.551Z,98866.16
2023-02-19T05:53:17.184Z,98860.16
2023-02-19T05:55:43.714Z,98857.09
2023-02-19T05:58:10.234Z,98863.44
2023-02-19T06:00:36.793Z,98866.16
2023-02-19T06:03:03.450Z,98866.84
2023-02-19T06:05:30.035Z,98872.28
2023-02-19T06:07:56.555Z,98870.03
2023-02-19T06:10:23.548Z,98875.94
2023-02-19T06:12:53.350Z,98870.34
2023-02-19T06:15:20.553Z,98875.34
2023-02-19T06:17:47.244Z,98879.44
2023-02-19T06:22:45.266Z,98896.56
2023-02-19T06:25:12.872Z,98907.25
2023-02-19T06:27:39.688Z,98899.06
2023-02-19T06:30:06.730Z,98901.34
2023-02-19T06:32:33.375Z,98882.59
2023-02-19T06:34:59.922Z,98889.78
2023-02-19T06:37:26.631Z,98892.94
2023-02-19T06:39:53.221Z,98900.31
2023-02-19T06:42:19.733Z,98895.56
2023-02-19T06:44:46.229Z,98890.22
2023-02-19T06:47:12.767Z,98912.47
2023-02-19T06:49:40.268Z,98907.38
2023-02-19T06:52:07.345Z,98916.09
2023-02-19T06:54:33.827Z,98927.09
2023-02-19T06:57:00.483Z,98935.38
2023-02-19T06:59:27.206Z,98929.69
2023-02-19T07:01:53.764Z,98937.22
2023-02-19T07:04:20.330Z,98934.25
2023-02-19T07:06:46.893Z,98935.03
2023-02-19T07:09:13.501Z,98944.78
2023-02-19T07:11:40.918Z,98946.81
2023-02-19T07:14:17.361Z,98936.63
2023-02-19T07:16:44.480Z,98940.13
2023-02-19T07:19:12.084Z,98947.88
2023-02-19T07:21:39.144Z,98951.50
2023-02-19T07:24:06.056Z,98968.53
2023-02-19T07:26:32.954Z,98964.66
2023-02-19T07:28:59.602Z,98962.75
2023-02-19T07:36:28.748Z,98962.38
2023-02-19T07:38:56.959Z,98968.75
2023-02-19T07:41:24.734Z,98964.00
2023-02-19T07:43:52.255Z,98971.13
2023-02-19T07:46:19.197Z,98968.84
2023-02-19T07:48:45.966Z,98971.03
2023-02-19T07:53:52.538Z,98973.75
2023-02-19T07:56:19.836Z,98977.81
2023-02-19T07:58:46.453Z,98988.72
2023-02-19T08:01:19.298Z,98990.06
2023-02-19T08:06:17.587Z,98978.75
2023-02-19T08:08:44.151Z,98974.53
2023-02-19T08:11:29.263Z,98983.16
2023-02-19T08:16:42.650Z,99000.31
2023-02-19T08:19:10.173Z,99003.38
2023-02-19T08:21:36.734Z,99010.75
2023-02-19T08:24:03.486Z,99010.19
2023-02-19T08:26:29.995Z,99009.41
2023-02-19T08:28:56.535Z,99007.81
2023-02-19T08:31:23.175Z,99023.25
2023-02-19T08:33:49.781Z,99024.63
2023-02-19T08:36:16.327Z,99016.44
2023-02-19T08:41:14.992Z,99023.78
2023-02-19T08:43:42.526Z,99027.91
2023-02-19T08:46:10.700Z,99024.50
2023-02-19T08:48:38.818Z,99010.63
2023-02-19T08:51:08.833Z,99011.63
2023-02-19T08:53:37.230Z,99019.03
2023-02-19T08:56:11.791Z,99027.31
2023-02-19T08:58:38.685Z,99023.47
2023-02-19T09:01:14.138Z,99032.28
2023-02-19T09:03:41.649Z,99037.06
2023-02-19T09:08:42.641Z,99047.28
2023-02-19T09:11:09.637Z,99050.22
2023-02-19T09:13:36.405Z,99055.03
2023-02-19T09:18:43.264Z,99066.38
2023-02-19T09:21:10.154Z,99063.88
2023-02-19T09:23:37.390Z,99070.34
2023-02-19T09:26:07.094Z,99067.25
2023-02-19T09:28:33.821Z,99070.44
2023-02-19T09:31:05.323Z,99081.78
2023-02-19T09:33:32.166Z,99082.69
2023-02-19T09:36:00.718Z,99080.53
2023-02-19T09:38:27.780Z,99077.81
2023-02-19T09:40:54.397Z,99069.16
2023-02-19T09:43:23.255Z,99073.84
2023-02-19T09:45:56.110Z,99076.56
2023-02-19T09:48:22.735Z,99078.03
2023-02-19T09:50:50.139Z,99081.28
2023-02-19T09:53:25.197Z,99068.00
2023-02-19T09:55:53.472Z,99063.88
2023-02-19T09:58:28.203Z,99072.38
2023-02-19T10:00:56.936Z,99075.75
2023-02-19T10:03:31.883Z,99073.59
2023-02-19T10:06:02.036Z,99078.13
2023-02-19T10:08:33.059Z,99083.78
2023-02-19T10:11:03.427Z,99078.16
2023-02-19T10:13:35.373Z,99071.72
2023-02-19T10:16:04.997Z,99071.03
2023-02-19T10:18:42.802Z,99077.31
2023-02-19T10:21:28.323Z,99080.03
2023-02-19T10:24:00.264Z,99075.34
2023-02-19T10:26:27.670Z,99082.84
2023-02-19T10:28:55.614Z,99087.16
2023-02-19T10:31:24.618Z,99090.84
2023-02-19T10:34:02.128Z,99091.75
2023-02-19T10:36:33.261Z,99103.94
2023-02-19T10:41:44.112Z,99107.44
2023-02-19T10:44:24.310Z,99114.41
2023-02-19T10:46:55.307Z,99114.94
2023-02-19T10:49:30.546Z,99111.69
2023-02-19T10:52:05.533Z,99113.25
2023-02-19T10:54:34.804Z,99120.59
2023-02-19T10:57:19.540Z,99119.63
2023-02-19T10:59:51.177Z,99123.31
2023-02-19T11:02:20.480Z,99113.44
2023-02-19T11:05:02.910Z,99134.69
2023-02-19T11:07:29.736Z,99123.84
2023-02-19T11:09:57.268Z,99113.44
2023-02-19T11:12:28.386Z,99119.16
2023-02-19T11:14:55.052Z,99121.19
2023-02-19T11:17:29.817Z,99128.72
2023-02-19T11:20:00.134Z,99128.50
2023-02-19T11:22:33.798Z,99127.31
2023-02-19T11:25:14.662Z,99141.59
2023-02-19T11:27:54.301Z,99136.53
2023-02-19T11:30:28.070Z,99131.66
2023-02-19T11:35:25.998Z,99129.84
2023-02-19T11:38:00.958Z,99123.75
2023-02-19T11:40:39.206Z,99132.50
2023-02-19T11:43:08.271Z,99135.94
2023-02-19T11:46:00.976Z,99140.81
2023-02-19T11:48:39.685Z,99148.16
2023-02-19T11:54:15.208Z,99155.06
2023-02-19T11:56:43.271Z,99146.59
2023-02-19T11:59:41.066Z,99159.06
2023-02-19T12:02:34.636Z,99145.22
2023-02-19T12:05:29.790Z,99164.31
2023-02-19T12:08:21.337Z,99157.38
2023-02-19T12:11:06.654Z,99154.97
2023-02-19T12:13:40.824Z,99157.25
2023-02-19T12:16:10.138Z,99152.78
2023-02-19T12:19:18.299Z,99141.75
2023-02-19T12:22:16.979Z,99152.84
2023-02-19T12:25:00.014Z,99138.69
2023-02-19T12:27:55.767Z,99133.88
2023-02-19T12:30:28.348Z,99121.19
2023-02-19T12:33:25.627Z,99131.09
2023-02-19T12:36:16.773Z,99125.69
2023-02-19T12:41:43.223Z,99140.31
2023-02-19T12:44:17.167Z,99142.47
2023-02-19T12:46:51.581Z,99129.38
2023-02-19T12:49:31.818Z,99139.19
2023-02-19T12:54:56.621Z,99148.19
2023-02-19T12:57:27.183Z,99140.25
2023-02-19T13:00:13.443Z,99144.25
2023-02-19T13:02:53.929Z,99116.63
2023-02-19T13:05:25.980Z,99128.69
2023-02-19T13:08:03.258Z,99135.06
2023-02-19T13:10:40.059Z,99138.06
2023-02-19T13:13:15.490Z,99132.13
2023-02-19T13:15:46.538Z,99126.22
2023-02-19T13:18:30.239Z,99120.47
2023-02-19T13:20:56.992Z,99129.00
2023-02-19T13:23:53.770Z,99127.25
2023-02-19T13:26:50.856Z,99129.69
2023-02-19T13:29:34.601Z,99125.63
2023-02-19T13:32:23.895Z,99140.00
2023-02-19T13:35:28.434Z,99133.66
2023-02-19T13:38:00.030Z,99134.44
2023-02-19T13:40:39.493Z,99136.59
2023-02-19T13:43:40.221Z,99134.03
2023-02-19T13:46:10.690Z,99134.28
2023-02-19T13:48:39.265Z,99131.16
2023-02-19T13:51:26.520Z,99133.78
2023-02-19T13:53:55.570Z,99134.69
2023-02-19T13:56:34.409Z,99140.31
2023-02-19T13:59:24.856Z,99141.16
2023-02-19T14:01:54.126Z,99144.47
2023-02-19T14:04:32.661Z,99130.75
2023-02-19T14:07:05.015Z,99134.03
2023-02-19T14:09:34.382Z,99128.47
2023-02-19T14:12:10.302Z,99132.09
2023-02-19T14:14:38.027Z,99129.13
2023-02-19T14:17:33.318Z,99121.03
2023-02-19T14:20:31.492Z,99121.50
2023-02-19T14:23:14.882Z,99126.66
2023-02-19T14:25:45.430Z,99131.88
2023-02-19T14:28:33.629Z,99123.72
2023-02-19T14:31:09.045Z,99139.28
2023-02-19T14:33:40.367Z,99140.59
2023-02-19T14:36:19.404Z,99148.34
2023-02-19T14:38:53.610Z,99135.06
2023-02-19T14:41:23.416Z,99140.44
2023-02-19T14:43:52.915Z,99137.53
2023-02-19T14:46:33.596Z,99138.31
2023-02-19T14:49:19.333Z,99148.47
2023-02-19T14:51:51.406Z,99148.19
2023-02-19T14:54:27.831Z,99147.06
2023-02-19T14:59:29.272Z,99145.81
2023-02-19T15:02:04.381Z,99151.13
2023-02-19T15:04:36.883Z,99151.28
2023-02-19T15:07:07.857Z,99160.47
2023-02-19T15:09:43.344Z,99172.28
2023-02-19T15:12:17.308Z,99173.78
2023-02-19T15:14:45.358Z,99181.72
2023-02-19T15:17:19.467Z,99185.75
2023-02-19T15:19:46.142Z,99189.38
2023-02-19T15:22:18.603Z,99200.41
2023-02-19T15:27:23.322Z,99195.69
2023-02-19T15:29:53.648Z,99199.47
2023-02-19T15:32:26.789Z,99194.25
2023-02-19T15:35:01.639Z,99195.38
2023-02-19T15:37:31.428Z,99195.16
2023-02-19T15:42:38.445Z,99192.81
2023-02-19T15:45:23.695Z,99194.38
2023-02-19T15:47:50.234Z,99194.16
2023-02-19T15:50:22.535Z,99182.75
2023-02-19T15:52:52.558Z,99185.41
2023-02-19T15:55:32.258Z,99177.91
2023-02-19T15:58:13.472Z,99169.72
2023-02-19T16:00:50.646Z,99170.19
2023-02-19T16:03:25.647Z,99188.38
2023-02-19T16:05:59.498Z,99190.66
2023-02-19T16:08:34.745Z,99183.84
2023-02-19T16:11:03.902Z,99178.03
2023-02-19T16:13:33.520Z,99193.50
2023-02-19T16:16:22.951Z,99200.69
2023-02-19T16:18:51.556Z,99191.94
2023-02-19T16:21:21.769Z,99197.97
2023-02-19T16:23:54.646Z,99194.31
2023-02-19T16:26:21.933Z,99206.38
2023-02-19T16:28:55.485Z,99205.22
2023-02-19T16:31:23.745Z,99202.72
2023-02-19T16:33:51.430Z,99203.97
2023-02-19T16:36:34.848Z,99202.97
2023-02-19T16:39:07.125Z,99193.84
2023-02-19T16:41:34.088Z,99191.25
2023-02-19T16:44:06.578Z,99198.44
2023-02-19T16:46:33.377Z,99187.50
2023-02-19T16:49:00.007Z,99190.25
2023-02-19T16:51:27.908Z,99193.53
2023-02-19T16:53:54.490Z,99191.59
2023-02-19T16:56:23.182Z,99187.84
2023-02-19T16:58:50.501Z,99195.91
2023-02-19T17:01:17.866Z,99203.88
2023-02-19T17:03:47.161Z,99209.78
2023-02-19T17:06:14.319Z,99213.41
2023-02-19T17:08:44.637Z,99216.16
2023-02-19T17:11:14.605Z,99230.03
2023-02-19T17:13:42.469Z,99232.63
2023-02-19T17:16:18.178Z,99230.03
2023-02-19T17:18:44.865Z,99239.00
2023-02-19T17:21:32.006Z,99232.19
2023-02-19T17:23:58.593Z,99232.19
2023-02-19T17:26:28.122Z,99243.44
2023-02-19T17:29:01.603Z,99243.91
2023-02-19T17:31:28.306Z,99240.59
2023-02-19T17:33:55.124Z,99239.44
2023-02-19T17:36:33.023Z,99251.84
2023-02-19T17:39:01.879Z,99258.19
2023-02-19T17:44:01.770Z,99263.66
2023-02-19T17:46:28.319Z,99265.28
2023-02-19T17:48:55.428Z,99272.88
2023-02-19T17:51:22.370Z,99273.66
2023-02-19T17:53:49.409Z,99283.13
2023-02-19T17:56:19.425Z,99282.91
2023-02-19T17:58:46.291Z,99288.69
2023-02-19T18:01:13.488Z,99296.53
2023-02-19T18:03:40.308Z,99302.69
2023-02-19T18:08:38.734Z,99310.63
2023-02-19T18:13:44.903Z,99335.78
2023-02-19T18:16:11.798Z,99330.06
2023-02-19T18:18:38.364Z,99335.41
2023-02-19T18:21:09.529Z,99340.03
2023-02-19T18:23:36.390Z,99332.34
2023-02-19T18:28:38.004Z,99341.53
2023-02-19T18:31:04.852Z,99343.72
2023-02-19T18:33:31.564Z,99343.13
2023-02-19T18:35:58.094Z,99348.44
2023-02-19T18:38:24.704Z,99343.81
2023-02-19T18:43:28.299Z,99354.34
2023-02-19T18:45:54.867Z,99348.91
2023-02-19T18:48:21.526Z,99351.53
2023-02-19T18:50:48.046Z,99353.22
2023-02-19T18:53:14.588Z,99346.59
2023-02-19T18:55:41.198Z,99354.59
2023-02-19T18:58:07.786Z,99352.53
2023-02-19T19:00:34.348Z,99357.78
2023-02-19T19:03:00.954Z,99350.59
2023-02-19T19:07:59.707Z,99367.84
2023-02-19T19:10:26.950Z,99372.03
2023-02-19T19:15:26.176Z,99368.19
2023-02-19T19:17:52.862Z,99368.50
2023-02-19T19:22:53.856Z,99397.94
2023-02-19T19:25:23.083Z,99394.63
2023-02-19T19:27:51.100Z,99384.41
2023-02-19T19:30:20.237Z,99394.53
2023-02-19T19:32:51.455Z,99384.41
2023-02-19T19:35:19.569Z,99386.22
2023-02-19T19:40:23.635Z,99397.72
2023-02-19T19:42:52.248Z,99388.59
2023-02-19T19:45:18.900Z,99395.56
2023-02-19T19:47:45.683Z,99393.94
2023-02-19T19:50:14.569Z,99397.50
2023-02-19T19:52:41.273Z,99400.47
2023-02-19T19:55:08.266Z,99402.53
2023-02-19T19:57:34.793Z,99402.03
2023-02-19T20:00:01.680Z,99400.19
2023-02-19T20:02:28.489Z,99398.66
2023-02-19T20:04:55.174Z,99393.59
2023-02-19T20:07:22.018Z,99399.91
2023-02-19T20:09:49.672Z,99392.41
2023-02-19T20:12:17.492Z,99397.13
2023-02-19T20:14:46.366Z,99392.41
2023-02-19T20:17:13.951Z,99392.59
2023-02-19T20:19:40.753Z,99387.84
2023-02-19T20:22:07.306Z,99383.50
2023-02-19T20:24:33.898Z,99385.41
2023-02-19T20:27:02.149Z,99384.22
2023-02-19T20:29:31.104Z,99392.06
2023-02-19T20:32:02.591Z,99388.66
2023-02-19T20:34:30.211Z,99395.94
2023-02-19T20:36:57.022Z,99411.03
2023-02-19T20:39:28.800Z,99409.31
2023-02-19T20:41:56.420Z,99409.63
2023-02-19T20:44:23.499Z,99407.56
2023-02-19T20:46:51.429Z,99399.75
2023-02-19T20:52:02.100Z,99398.28
2023-02-19T20:54:31.444Z,99393.81
2023-02-19T20:57:00.559Z,99395.75
2023-02-19T21:02:08.594Z,99400.28
2023-02-19T21:04:38.554Z,99395.81
2023-02-19T21:07:05.094Z,99402.19
2023-02-19T21:09:32.246Z,99410.19
2023-02-19T21:11:59.989Z,99403.00
2023-02-19T21:14:26.812Z,99411.19
2023-02-19T21:19:32.228Z,99405.41
2023-02-19T21:21:58.792Z,99407.06
2023-02-19T21:24:25.395Z,99396.16
2023-02-19T21:26:51.971Z,99401.72
2023-02-19T21:29:20.874Z,99397.91
2023-02-19T21:31:55.664Z,99400.75
2023-02-19T21:34:25.700Z,99400.75
2023-02-19T21:36:53.141Z,99402.31
2023-02-19T21:39:22.008Z,99403.00
2023-02-19T21:41:48.834Z,99403.78
2023-02-19T21:44:15.804Z,99404.84
2023-02-19T21:46:42.403Z,99391.56
2023-02-19T21:49:09.920Z,99394.81
2023-02-19T21:54:21.104Z,99395.47
2023-02-19T21:56:48.772Z,99392.53
2023-02-19T21:59:15.610Z,99386.91
2023-02-19T22:01:43.384Z,99394.63
2023-02-19T22:04:14.018Z,99393.03
2023-02-19T22:06:41.101Z,99393.59
2023-02-19T22:09:08.818Z,99393.13
2023-02-19T22:11:35.601Z,99394.91
2023-02-19T22:14:02.139Z,99394.06
2023-02-19T22:16:28.997Z,99395.88
2023-02-19T22:18:57.998Z,99395.88
2023-02-19T22:21:27.463Z,99409.31
2023-02-19T22:23:55.088Z,99404.19
2023-02-19T22:26:27.031Z,99418.69
2023-02-19T22:28:54.271Z,99421.16
2023-02-19T22:31:23.476Z,99423.22
2023-02-19T22:33:50.882Z,99415.84
2023-02-19T22:38:55.042Z,99416.81
2023-02-19T22:41:22.178Z,99411.44
2023-02-19T22:43:49.841Z,99422.69
2023-02-19T22:46:21.364Z,99424.47
2023-02-19T22:48:48.376Z,99419.69
2023-02-19T22:51:17.611Z,99424.53
2023-02-19T22:54:02.876Z,99422.03
2023-02-19T22:59:06.603Z,99419.31
2023-02-19T23:01:33.185Z,99427.34
2023-02-19T23:04:01.286Z,99429.78
2023-02-19T23:06:30.301Z,99430.84
2023-02-19T23:08:58.535Z,99427.94
2023-02-19T23:11:27.818Z,99426.84
2023-02-19T23:13:54.698Z,99430.34
2023-02-19T23:16:21.791Z,99433.25
2023-02-19T23:18:48.950Z,99435.38
2023-02-19T23:21:16.246Z,99428.47
2023-02-19T23:23:43.624Z,99433.66
2023-02-19T23:26:10.751Z,99431.19
2023-02-19T23:28:39.910Z,99433.78
2023-02-19T23:31:06.902Z,99431.38
2023-02-19T23:33:33.820Z,99437.50
2023-02-19T23:36:00.364Z,99442.28
2023-02-19T23:38:27.193Z,99431.38
2023-02-19T23:40:53.988Z,99438.31
2023-02-19T23:43:21.193Z,99436.44
2023-02-19T23:45:47.911Z,99442.97
2023-02-19T23:48:14.596Z,99445.09
2023-02-19T23:53:12.735Z,99440.44
2023-02-19T23:55:39.290Z,99445.59
2023-02-19T23:58:05.859Z,99439.75
